createdAt,value
2022-09-17T00:00:15.754Z,16.70
2022-09-17T00:02:44.866Z,16.70
2022-09-17T00:05:12.252Z,16.70
2022-09-17T00:07:39.089Z,16.70
2022-09-17T00:10:06.069Z,16.70
2022-09-17T00:12:32.820Z,16.70
2022-09-17T00:14:59.670Z,16.60
2022-09-17T00:17:26.498Z,16.60
2022-09-17T00:19:53.327Z,16.60
2022-09-17T00:22:20.109Z,16.60
2022-09-17T00:24:46.864Z,16.60
2022-09-17T00:27:13.574Z,16.60
2022-09-17T00:29:40.490Z,16.60
2022-09-17T00:32:07.266Z,16.60
2022-09-17T00:34:34.172Z,16.60
2022-09-17T00:37:00.995Z,16.60
2022-09-17T00:39:27.753Z,16.60
2022-09-17T00:41:54.510Z,16.60
2022-09-17T00:44:36.765Z,16.60
2022-09-17T00:47:03.541Z,16.60
2022-09-17T00:49:30.825Z,16.60
2022-09-17T00:52:00.943Z,16.20
2022-09-17T00:54:28.069Z,16.60
2022-09-17T00:56:54.937Z,16.50
2022-09-17T00:59:23.138Z,16.60
2022-09-17T01:01:50.487Z,16.60
2022-09-17T01:04:18.240Z,16.60
2022-09-17T01:06:54.107Z,16.60
2022-09-17T01:09:39.911Z,16.60
2022-09-17T01:12:25.099Z,16.60
2022-09-17T01:15:00.333Z,16.60
2022-09-17T01:17:27.128Z,16.50
2022-09-17T01:19:59.940Z,16.60
2022-09-17T01:22:33.906Z,16.60
2022-09-17T01:25:00.718Z,16.50
2022-09-17T01:27:45.772Z,16.60
2022-09-17T01:30:18.233Z,16.50
2022-09-17T01:32:45.655Z,16.50
2022-09-17T01:35:19.533Z,16.40
2022-09-17T01:37:46.322Z,16.50
2022-09-17T01:40:18.389Z,16.50
2022-09-17T01:42:45.192Z,16.50
2022-09-17T01:45:30.740Z,16.50
2022-09-17T01:48:00.861Z,16.50
2022-09-17T01:50:30.109Z,16.40
2022-09-17T01:52:57.513Z,16.40
2022-09-17T01:55:26.760Z,16.40
2022-09-17T01:57:59.209Z,16.40
2022-09-17T02:00:27.068Z,16.40
2022-09-17T02:03:02.354Z,16.40
2022-09-17T02:05:47.997Z,16.40
2022-09-17T02:08:17.385Z,16.40
2022-09-17T02:10:45.590Z,16.40
2022-09-17T02:16:11.094Z,16.40
2022-09-17T02:18:43.104Z,16.40
2022-09-17T02:21:30.160Z,16.40
2022-09-17T02:24:03.918Z,16.40
2022-09-17T02:26:31.994Z,16.40
2022-09-17T02:29:02.199Z,16.40
2022-09-17T02:31:29.551Z,16.40
2022-09-17T02:34:00.761Z,16.50
2022-09-17T02:36:28.441Z,16.60
2022-09-17T02:38:58.569Z,16.40
2022-09-17T02:41:32.158Z,16.60
2022-09-17T02:43:59.142Z,16.40
2022-09-17T02:46:47.529Z,16.40
2022-09-17T02:49:20.397Z,16.10
2022-09-17T02:52:06.358Z,16.40
2022-09-17T02:54:33.686Z,16.30
2022-09-17T02:57:20.185Z,16.30
2022-09-17T02:59:58.414Z,16.40
2022-09-17T03:02:44.343Z,16.30
2022-09-17T03:05:12.021Z,16.30
2022-09-17T03:07:38.896Z,16.30
2022-09-17T03:10:06.545Z,16.20
2022-09-17T03:12:33.365Z,16.30
2022-09-17T03:15:00.603Z,16.30
2022-09-17T03:17:27.486Z,16.50
2022-09-17T03:19:54.559Z,16.30
2022-09-17T03:22:21.791Z,16.30
2022-09-17T03:24:48.858Z,16.30
2022-09-17T03:27:15.989Z,16.30
2022-09-17T03:29:42.864Z,16.30
2022-09-17T03:32:09.802Z,16.30
2022-09-17T03:34:36.644Z,16.30
2022-09-17T03:37:03.466Z,16.30
2022-09-17T03:39:30.416Z,16.00
2022-09-17T03:41:57.316Z,16.20
2022-09-17T03:44:24.251Z,16.20
2022-09-17T03:46:51.377Z,16.10
2022-09-17T03:49:18.256Z,16.20
2022-09-17T03:51:45.509Z,16.10
2022-09-17T03:54:12.401Z,16.20
2022-09-17T03:56:39.148Z,16.20
2022-09-17T03:59:06.329Z,16.20
2022-09-17T04:01:36.432Z,16.20
2022-09-17T04:04:03.855Z,16.40
2022-09-17T04:06:30.619Z,16.10
2022-09-17T04:08:57.428Z,16.20
2022-09-17T04:11:24.285Z,16.20
2022-09-17T04:13:51.147Z,16.20
2022-09-17T04:16:17.966Z,16.10
2022-09-17T04:18:44.855Z,16.10
2022-09-17T04:21:11.819Z,16.10
2022-09-17T04:23:38.743Z,16.10
2022-09-17T04:26:05.730Z,16.10
2022-09-17T04:28:32.611Z,16.10
2022-09-17T04:30:59.431Z,16.10
2022-09-17T04:33:26.293Z,16.00
2022-09-17T04:35:54.120Z,16.10
2022-09-17T04:38:22.197Z,15.90
2022-09-17T04:40:49.039Z,16.00
2022-09-17T04:43:15.935Z,16.00
2022-09-17T04:45:45.616Z,16.00
2022-09-17T04:48:12.822Z,16.00
2022-09-17T04:50:39.672Z,16.00
2022-09-17T04:53:06.637Z,15.90
2022-09-17T04:55:33.416Z,15.90
2022-09-17T04:58:00.603Z,16.00
2022-09-17T05:00:27.641Z,16.00
2022-09-17T05:02:55.604Z,16.00
2022-09-17T05:05:25.001Z,15.90
2022-09-17T05:07:51.920Z,15.90
2022-09-17T05:10:19.844Z,15.90
2022-09-17T05:12:54.054Z,16.00
2022-09-17T05:15:21.486Z,15.90
2022-09-17T05:17:48.656Z,15.90
2022-09-17T05:20:16.228Z,15.90
2022-09-17T05:22:51.373Z,15.90
2022-09-17T05:25:19.437Z,15.90
2022-09-17T05:27:46.596Z,15.80
2022-09-17T05:30:13.642Z,15.80
2022-09-17T05:32:40.935Z,15.80
2022-09-17T05:35:08.623Z,15.80
2022-09-17T05:37:35.686Z,15.80
2022-09-17T05:40:03.845Z,15.80
2022-09-17T05:42:30.683Z,15.80
2022-09-17T05:44:57.805Z,15.80
2022-09-17T05:47:24.728Z,15.80
2022-09-17T05:49:51.656Z,15.80
2022-09-17T05:52:19.352Z,15.80
2022-09-17T05:54:46.812Z,15.80
2022-09-17T05:57:13.681Z,15.70
2022-09-17T05:59:40.504Z,15.70
2022-09-17T06:02:07.385Z,15.80
2022-09-17T06:04:35.181Z,15.70
2022-09-17T06:07:04.667Z,15.70
2022-09-17T06:09:31.544Z,15.70
2022-09-17T06:11:58.362Z,15.70
2022-09-17T06:14:25.294Z,15.70
2022-09-17T06:16:52.345Z,15.70
2022-09-17T06:19:21.921Z,15.70
2022-09-17T06:21:51.372Z,15.60
2022-09-17T06:24:18.544Z,15.20
2022-09-17T06:26:45.510Z,15.60
2022-09-17T06:29:15.093Z,15.60
2022-09-17T06:31:45.010Z,15.60
2022-09-17T06:34:12.382Z,15.60
2022-09-17T06:36:39.284Z,15.50
2022-09-17T06:39:06.559Z,15.60
2022-09-17T06:41:33.417Z,15.60
2022-09-17T06:44:02.240Z,15.50
2022-09-17T06:46:29.632Z,15.50
2022-09-17T06:48:56.656Z,15.50
2022-09-17T06:51:23.545Z,15.40
2022-09-17T06:53:50.431Z,15.40
2022-09-17T06:56:17.966Z,15.30
2022-09-17T06:58:44.854Z,15.20
2022-09-17T07:01:12.912Z,15.20
2022-09-17T07:03:43.289Z,15.10
2022-09-17T07:06:10.986Z,15.10
2022-09-17T07:08:39.571Z,15.00
2022-09-17T07:11:06.672Z,15.10
2022-09-17T07:13:34.092Z,15.00
2022-09-17T07:16:01.901Z,15.00
2022-09-17T07:18:28.735Z,15.00
2022-09-17T07:20:56.204Z,15.00
2022-09-17T07:23:27.309Z,14.90
2022-09-17T07:26:00.631Z,14.90
2022-09-17T07:28:28.843Z,14.90
2022-09-17T07:30:56.295Z,14.90
2022-09-17T07:33:24.949Z,14.90
2022-09-17T07:35:59.100Z,14.90
2022-09-17T07:38:26.984Z,14.80
2022-09-17T07:41:01.035Z,14.80
2022-09-17T07:43:28.809Z,14.80
2022-09-17T07:45:56.870Z,14.80
2022-09-17T07:48:24.202Z,14.80
2022-09-17T07:50:50.935Z,14.80
2022-09-17T07:53:18.378Z,14.80
2022-09-17T07:55:55.328Z,14.70
2022-09-17T07:58:22.946Z,14.70
2022-09-17T08:00:50.133Z,14.70
2022-09-17T08:03:17.344Z,14.80
2022-09-17T08:05:44.208Z,14.70
2022-09-17T08:08:11.172Z,14.70
2022-09-17T08:10:37.904Z,14.70
2022-09-17T08:13:04.781Z,14.80
2022-09-17T08:15:31.624Z,14.80
2022-09-17T08:17:58.542Z,14.70
2022-09-17T08:20:26.461Z,14.80
2022-09-17T08:23:00.511Z,14.80
2022-09-17T08:25:27.442Z,14.80
2022-09-17T08:30:25.636Z,14.80
2022-09-17T08:32:55.178Z,14.90
2022-09-17T08:35:22.149Z,14.80
2022-09-17T08:37:48.991Z,14.80
2022-09-17T08:40:21.205Z,14.80
2022-09-17T08:42:54.966Z,14.80
2022-09-17T08:45:22.008Z,14.80
2022-09-17T08:47:49.178Z,14.80
2022-09-17T08:50:19.261Z,14.90
2022-09-17T08:53:05.032Z,14.90
2022-09-17T08:55:34.968Z,15.00
2022-09-17T08:58:14.420Z,14.90
2022-09-17T09:00:47.090Z,15.00
2022-09-17T09:03:13.811Z,14.90
2022-09-17T09:05:48.617Z,14.90
2022-09-17T09:08:22.523Z,14.90
2022-09-17T09:10:51.823Z,14.80
2022-09-17T09:13:22.188Z,14.90
2022-09-17T09:15:52.265Z,14.80
2022-09-17T09:18:20.799Z,14.80
2022-09-17T09:20:51.780Z,14.80
2022-09-17T09:23:20.309Z,14.80
2022-09-17T09:26:19.612Z,14.90
2022-09-17T09:29:09.372Z,14.90
2022-09-17T09:31:54.815Z,14.90
2022-09-17T09:34:23.745Z,14.90
2022-09-17T09:36:51.496Z,14.90
2022-09-17T09:39:21.984Z,15.10
2022-09-17T09:41:48.706Z,14.90
2022-09-17T09:44:16.717Z,14.90
2022-09-17T09:46:49.738Z,14.90
2022-09-17T09:49:35.564Z,15.00
2022-09-17T09:52:21.447Z,14.90
2022-09-17T09:54:48.204Z,14.90
2022-09-17T09:57:21.867Z,14.80
2022-09-17T09:59:48.681Z,14.80
2022-09-17T10:02:15.602Z,14.90
2022-09-17T10:04:42.441Z,14.90
2022-09-17T10:07:11.714Z,14.80
2022-09-17T10:09:44.783Z,14.80
2022-09-17T10:12:11.470Z,14.70
2022-09-17T10:14:39.228Z,14.70
2022-09-17T10:17:05.996Z,14.70
2022-09-17T10:19:33.005Z,14.60
2022-09-17T10:22:18.225Z,14.70
2022-09-17T10:24:45.353Z,14.60
2022-09-17T10:27:17.047Z,14.70
2022-09-17T10:29:49.152Z,14.70
2022-09-17T10:32:17.043Z,14.60
2022-09-17T10:34:58.039Z,14.70
2022-09-17T10:37:35.603Z,14.60
2022-09-17T10:40:02.536Z,14.60
2022-09-17T10:42:29.331Z,14.70
2022-09-17T10:44:57.486Z,14.70
2022-09-17T10:47:26.376Z,14.70
2022-09-17T10:50:01.331Z,14.70
2022-09-17T10:52:35.959Z,14.80
2022-09-17T10:55:15.794Z,14.80
2022-09-17T10:57:45.752Z,14.80
2022-09-17T11:00:17.609Z,14.80
2022-09-17T11:03:03.367Z,14.70
2022-09-17T11:05:37.889Z,14.80
2022-09-17T11:08:23.562Z,14.80
2022-09-17T11:11:08.787Z,14.80
2022-09-17T11:13:57.667Z,14.80
2022-09-17T11:16:51.164Z,14.80
2022-09-17T11:19:31.607Z,14.80
2022-09-17T11:22:16.888Z,14.90
2022-09-17T11:24:53.067Z,14.80
2022-09-17T11:27:19.892Z,14.90
2022-09-17T11:30:09.219Z,14.90
2022-09-17T11:32:54.960Z,14.90
2022-09-17T11:35:29.895Z,14.90
2022-09-17T11:38:01.844Z,14.90
2022-09-17T11:40:40.892Z,14.90
2022-09-17T11:43:15.173Z,14.90
2022-09-17T11:45:48.857Z,14.90
2022-09-17T11:48:20.563Z,14.90
2022-09-17T11:50:50.428Z,14.90
2022-09-17T11:53:52.915Z,14.90
2022-09-17T11:56:19.835Z,14.90
2022-09-17T11:58:49.782Z,14.90
2022-09-17T12:01:37.464Z,14.90
2022-09-17T12:04:18.267Z,15.00
2022-09-17T12:06:49.134Z,14.90
2022-09-17T12:09:20.633Z,14.90
2022-09-17T12:11:56.819Z,15.00
2022-09-17T12:14:26.061Z,15.20
2022-09-17T12:17:00.520Z,15.00
2022-09-17T12:19:45.897Z,14.90
2022-09-17T12:22:15.714Z,14.90
2022-09-17T12:24:43.147Z,14.90
2022-09-17T12:27:16.923Z,14.90
2022-09-17T12:30:02.351Z,14.90
2022-09-17T12:32:34.959Z,14.80
2022-09-17T12:35:01.818Z,14.80
2022-09-17T12:37:31.604Z,14.90
2022-09-17T12:40:10.856Z,14.90
2022-09-17T12:42:37.728Z,14.90
2022-09-17T12:45:20.421Z,14.90
2022-09-17T12:47:58.014Z,14.90
2022-09-17T12:50:43.476Z,14.90
2022-09-17T12:53:16.225Z,14.80
2022-09-17T12:55:45.528Z,14.80
2022-09-17T12:58:19.717Z,14.90
2022-09-17T13:00:50.800Z,14.80
2022-09-17T13:03:17.875Z,14.80
2022-09-17T13:05:50.978Z,14.80
2022-09-17T13:08:36.659Z,14.80
2022-09-17T13:11:06.589Z,14.80
2022-09-17T13:13:33.340Z,14.80
2022-09-17T13:16:13.371Z,14.90
2022-09-17T13:19:15.543Z,14.90
2022-09-17T13:22:00.397Z,14.90
2022-09-17T13:24:30.296Z,14.80
2022-09-17T13:26:58.770Z,14.80
2022-09-17T13:29:46.997Z,14.70
2022-09-17T13:32:32.311Z,14.60
2022-09-17T13:35:11.181Z,14.70
2022-09-17T13:37:40.010Z,14.70
2022-09-17T13:40:25.728Z,14.80
2022-09-17T13:42:56.748Z,14.70
2022-09-17T13:45:24.616Z,14.80
2022-09-17T13:47:54.445Z,14.90
2022-09-17T13:50:40.759Z,14.90
2022-09-17T13:53:14.232Z,14.90
2022-09-17T13:55:43.558Z,14.90
2022-09-17T13:58:30.835Z,14.90
2022-09-17T14:01:02.739Z,15.00
2022-09-17T14:03:40.700Z,15.00
2022-09-17T14:06:08.064Z,15.20
2022-09-17T14:08:44.183Z,15.00
2022-09-17T14:11:23.441Z,15.10
2022-09-17T14:13:57.775Z,15.10
2022-09-17T14:16:35.447Z,15.10
2022-09-17T14:19:02.410Z,15.20
2022-09-17T14:21:30.752Z,15.10
2022-09-17T14:23:59.561Z,15.10
2022-09-17T14:26:58.875Z,15.10
2022-09-17T14:29:26.741Z,15.10
2022-09-17T14:31:53.486Z,15.20
2022-09-17T14:34:22.332Z,15.10
2022-09-17T14:36:49.802Z,15.20
2022-09-17T14:39:21.413Z,15.20
2022-09-17T14:41:48.931Z,15.20
2022-09-17T14:44:18.588Z,15.20
2022-09-17T14:46:53.973Z,15.10
2022-09-17T14:49:25.308Z,15.20
2022-09-17T14:51:53.012Z,15.20
2022-09-17T14:54:51.018Z,15.20
2022-09-17T14:57:25.055Z,15.20
2022-09-17T14:59:54.027Z,15.20
2022-09-17T15:02:26.881Z,15.20
2022-09-17T15:04:54.125Z,15.10
2022-09-17T15:07:21.204Z,15.20
2022-09-17T15:09:47.972Z,15.20
2022-09-17T15:12:17.115Z,15.20
2022-09-17T15:14:45.814Z,15.10
2022-09-17T15:17:14.736Z,15.20
2022-09-17T15:19:42.887Z,15.20
2022-09-17T15:22:16.688Z,15.30
2022-09-17T15:24:47.323Z,15.30
2022-09-17T15:27:22.304Z,15.30
2022-09-17T15:29:55.655Z,15.40
2022-09-17T15:32:22.538Z,15.60
2022-09-17T15:35:07.917Z,15.70
2022-09-17T15:37:34.715Z,15.90
2022-09-17T15:40:11.594Z,16.00
2022-09-17T15:42:38.433Z,16.30
2022-09-17T15:45:08.192Z,16.40
2022-09-17T15:47:50.194Z,16.70
2022-09-17T15:50:18.614Z,16.90
2022-09-17T15:52:45.450Z,16.90
2022-09-17T15:55:30.876Z,17.10
2022-09-17T15:58:02.361Z,17.30
2022-09-17T16:00:29.109Z,17.50
2022-09-17T16:02:55.920Z,17.60
2022-09-17T16:05:25.719Z,17.60
2022-09-17T16:07:52.586Z,17.60
2022-09-17T16:10:19.482Z,17.50
2022-09-17T16:12:49.025Z,17.40
2022-09-17T16:15:17.427Z,17.40
2022-09-17T16:17:47.625Z,17.40
2022-09-17T16:20:16.710Z,17.50
2022-09-17T16:22:44.157Z,17.60
2022-09-17T16:25:11.371Z,17.70
2022-09-17T16:27:50.406Z,17.90
2022-09-17T16:30:19.324Z,17.60
2022-09-17T16:32:46.194Z,18.10
2022-09-17T16:35:17.267Z,18.10
2022-09-17T16:37:47.835Z,18.20
2022-09-17T16:40:14.709Z,18.30
2022-09-17T16:42:41.470Z,18.30
2022-09-17T16:45:09.155Z,18.30
2022-09-17T16:47:37.232Z,18.20
2022-09-17T16:50:08.405Z,18.10
2022-09-17T16:52:35.613Z,17.90
2022-09-17T16:55:03.023Z,17.80
2022-09-17T16:57:30.797Z,17.50
2022-09-17T16:59:57.818Z,17.50
2022-09-17T17:02:24.646Z,17.10
2022-09-17T17:04:51.385Z,17.10
2022-09-17T17:07:18.157Z,16.80
2022-09-17T17:09:45.088Z,16.60
2022-09-17T17:12:12.001Z,16.40
2022-09-17T17:14:38.887Z,16.30
2022-09-17T17:17:05.675Z,16.20
2022-09-17T17:19:33.455Z,16.10
2022-09-17T17:22:00.324Z,16.00
2022-09-17T17:24:27.040Z,15.90
2022-09-17T17:26:53.826Z,15.80
2022-09-17T17:29:20.652Z,15.80
2022-09-17T17:31:49.507Z,15.70
2022-09-17T17:34:16.504Z,15.60
2022-09-17T17:36:43.329Z,15.50
2022-09-17T17:39:10.074Z,15.50
2022-09-17T17:41:36.974Z,15.40
2022-09-17T17:44:03.778Z,15.30
2022-09-17T17:46:30.580Z,15.20
2022-09-17T17:48:58.137Z,15.20
2022-09-17T17:51:25.345Z,15.20
2022-09-17T17:53:52.128Z,15.10
2022-09-17T17:56:20.547Z,15.10
2022-09-17T17:58:47.712Z,15.00
2022-09-17T18:01:19.283Z,14.90
2022-09-17T18:03:46.165Z,14.80
2022-09-17T18:06:13.283Z,14.90
2022-09-17T18:08:40.719Z,14.80
2022-09-17T18:11:08.352Z,14.80
2022-09-17T18:13:36.408Z,14.70
2022-09-17T18:16:04.268Z,14.70
2022-09-17T18:18:34.451Z,14.60
2022-09-17T18:21:02.260Z,14.60
2022-09-17T18:23:29.511Z,14.60
2022-09-17T18:25:57.246Z,14.60
2022-09-17T18:28:24.335Z,14.60
2022-09-17T18:30:51.109Z,14.60
2022-09-17T18:33:21.407Z,14.50
2022-09-17T18:35:48.343Z,14.50
2022-09-17T18:38:15.606Z,14.50
2022-09-17T18:40:42.843Z,14.50
2022-09-17T18:43:09.720Z,14.40
2022-09-17T18:45:36.478Z,14.40
2022-09-17T18:48:05.204Z,14.40
2022-09-17T18:50:32.371Z,14.40
2022-09-17T18:52:59.139Z,14.40
2022-09-17T18:55:25.960Z,14.30
2022-09-17T18:57:52.681Z,14.30
2022-09-17T19:00:20.526Z,14.30
2022-09-17T19:02:48.231Z,14.30
2022-09-17T19:05:15.885Z,14.30
2022-09-17T19:07:46.548Z,14.30
2022-09-17T19:10:14.086Z,14.30
2022-09-17T19:12:42.265Z,14.20
2022-09-17T19:15:10.000Z,14.20
2022-09-17T19:17:36.763Z,14.20
2022-09-17T19:20:04.415Z,14.10
2022-09-17T19:22:31.525Z,14.10
2022-09-17T19:24:58.510Z,14.10
2022-09-17T19:27:25.473Z,14.10
2022-09-17T19:29:52.457Z,14.10
2022-09-17T19:32:20.461Z,14.00
2022-09-17T19:34:47.690Z,13.90
2022-09-17T19:37:14.504Z,14.00
2022-09-17T19:39:44.317Z,13.90
2022-09-17T19:42:11.577Z,13.80
2022-09-17T19:44:38.368Z,13.80
2022-09-17T19:47:05.188Z,13.80
2022-09-17T19:49:32.027Z,13.80
2022-09-17T19:51:58.859Z,13.80
2022-09-17T19:54:25.675Z,13.80
2022-09-17T19:56:52.537Z,13.80
2022-09-17T19:59:19.268Z,13.80
2022-09-17T20:01:49.643Z,13.80
2022-09-17T20:04:16.755Z,13.80
2022-09-17T20:06:43.540Z,13.80
2022-09-17T20:09:10.465Z,14.00
2022-09-17T20:11:46.127Z,13.70
2022-09-17T20:14:13.671Z,13.80
2022-09-17T20:16:40.795Z,13.80
2022-09-17T20:19:08.099Z,13.80
2022-09-17T20:21:34.946Z,13.80
2022-09-17T20:24:01.907Z,13.80
2022-09-17T20:26:28.787Z,13.80
2022-09-17T20:28:55.651Z,13.80
2022-09-17T20:31:23.864Z,13.80
2022-09-17T20:33:52.133Z,13.70
2022-09-17T20:36:20.619Z,13.60
2022-09-17T20:41:40.203Z,13.70
2022-09-17T20:44:07.229Z,13.70
2022-09-17T20:46:34.167Z,13.60
2022-09-17T20:49:01.111Z,13.60
2022-09-17T20:51:29.344Z,13.60
2022-09-17T20:53:57.352Z,13.60
2022-09-17T20:56:25.911Z,13.60
2022-09-17T20:59:00.043Z,13.60
2022-09-17T21:01:34.364Z,13.60
2022-09-17T21:04:02.035Z,13.60
2022-09-17T21:06:30.069Z,13.50
2022-09-17T21:08:57.456Z,13.60
2022-09-17T21:11:24.342Z,13.60
2022-09-17T21:13:51.449Z,13.60
2022-09-17T21:16:18.860Z,13.60
2022-09-17T21:18:45.800Z,13.60
2022-09-17T21:21:13.618Z,13.60
2022-09-17T21:23:41.233Z,13.60
2022-09-17T21:26:07.987Z,13.60
2022-09-17T21:28:35.740Z,13.60
2022-09-17T21:31:03.656Z,13.60
2022-09-17T21:33:30.515Z,13.60
2022-09-17T21:36:01.875Z,13.60
2022-09-17T21:38:28.728Z,13.60
2022-09-17T21:40:59.376Z,13.70
2022-09-17T21:43:26.842Z,13.70
2022-09-17T21:46:04.221Z,13.70
2022-09-17T21:48:32.243Z,13.70
2022-09-17T21:51:03.189Z,13.60
2022-09-17T21:53:30.295Z,13.60
2022-09-17T21:56:00.564Z,13.60
2022-09-17T21:58:27.290Z,13.60
2022-09-17T22:00:53.992Z,13.60
2022-09-17T22:03:21.080Z,13.60
2022-09-17T22:05:47.840Z,13.60
2022-09-17T22:08:14.709Z,13.50
2022-09-17T22:10:41.511Z,13.50
2022-09-17T22:13:08.929Z,13.50
2022-09-17T22:15:35.773Z,13.50
2022-09-17T22:18:04.447Z,13.40
2022-09-17T22:20:31.611Z,13.40
2022-09-17T22:22:58.373Z,13.50
2022-09-17T22:25:25.413Z,13.40
2022-09-17T22:28:16.966Z,13.40
2022-09-17T22:30:39.346Z,13.40
2022-09-17T22:33:06.360Z,13.40
2022-09-17T22:35:34.206Z,13.40
2022-09-17T22:38:00.988Z,13.30
2022-09-17T22:40:27.762Z,13.30
2022-09-17T22:42:55.024Z,13.30
2022-09-17T22:45:21.912Z,13.30
2022-09-17T22:47:48.660Z,13.30
2022-09-17T22:50:15.476Z,13.30
2022-09-17T22:52:42.216Z,13.00
2022-09-17T22:55:09.195Z,13.40
2022-09-17T22:57:35.914Z,13.40
2022-09-17T23:00:02.895Z,13.40
2022-09-17T23:02:29.701Z,13.40
2022-09-17T23:04:57.208Z,13.40
2022-09-17T23:07:23.986Z,13.40
2022-09-17T23:09:51.980Z,13.40
2022-09-17T23:12:21.398Z,13.40
2022-09-17T23:14:48.227Z,13.50
2022-09-17T23:17:15.027Z,13.50
2022-09-17T23:19:41.780Z,13.50
2022-09-17T23:22:08.539Z,13.50
2022-09-17T23:24:37.816Z,13.50
2022-09-17T23:27:04.650Z,13.40
2022-09-17T23:29:31.452Z,13.40
2022-09-17T23:31:58.212Z,13.30
2022-09-17T23:34:24.964Z,13.30
2022-09-17T23:36:51.871Z,13.30
2022-09-17T23:39:19.273Z,13.20
2022-09-17T23:41:47.944Z,13.20
2022-09-17T23:44:16.103Z,13.20
2022-09-17T23:46:43.823Z,13.20
2022-09-17T23:49:11.463Z,13.20
2022-09-17T23:51:38.380Z,13.20
2022-09-17T23:54:06.907Z,13.20
2022-09-17T23:56:34.645Z,13.20
2022-09-17T23:59:02.944Z,13.20
